sensor_id;sensor_type;location;lat;lon;timestamp;pressure;altitude;pressure_sealevel;temperature;humidity
4392;BME280;2210;51.938;8.488;2023-09-18T00:01:06;99831.50;;;20.28;100.00
4392;BME280;2210;51.938;8.488;2023-09-18T00:05:09;99837.91;;;20.29;100.00
4392;BME280;2210;51.938;8.488;2023-09-18T00:09:09;99834.09;;;20.25;100.00
4392;BME280;2210;51.938;8.488;2023-09-18T00:13:13;99824.72;;;20.29;100.00
4392;BME280;2210;51.938;8.488;2023-09-18T00:17:13;99813.38;;;20.26;100.00
4392;BME280;2210;51.938;8.488;2023-09-18T00:21:14;99794.41;;;20.23;100.00
4392;BME280;2210;51.938;8.488;2023-09-18T00:25:17;99802.81;;;20.23;100.00
4392;BME280;2210;51.938;8.488;2023-09-18T00:29:18;99791.31;;;20.33;100.00
4392;BME280;2210;51.938;8.488;2023-09-18T00:33:19;99776.19;;;20.34;100.00
4392;BME280;2210;51.938;8.488;2023-09-18T00:37:22;99760.06;;;20.31;100.00
4392;BME280;2210;51.938;8.488;2023-09-18T00:41:25;99744.41;;;20.30;100.00
4392;BME280;2210;51.938;8.488;2023-09-18T00:45:26;99738.50;;;20.40;100.00
4392;BME280;2210;51.938;8.488;2023-09-18T00:49:32;99744.09;;;20.40;100.00
4392;BME280;2210;51.938;8.488;2023-09-18T00:53:33;99739.81;;;20.43;100.00
4392;BME280;2210;51.938;8.488;2023-09-18T00:57:35;99733.41;;;20.42;100.00
4392;BME280;2210;51.938;8.488;2023-09-18T01:01:42;99723.34;;;20.41;100.00
4392;BME280;2210;51.938;8.488;2023-09-18T01:05:44;99720.41;;;20.37;100.00
4392;BME280;2210;51.938;8.488;2023-09-18T01:09:45;99715.09;;;20.36;100.00
4392;BME280;2210;51.938;8.488;2023-09-18T01:14:02;99704.53;;;20.33;100.00
4392;BME280;2210;51.938;8.488;2023-09-18T01:18:04;99705.41;;;20.33;100.00
4392;BME280;2210;51.938;8.488;2023-09-18T01:22:06;99696.66;;;20.35;100.00
4392;BME280;2210;51.938;8.488;2023-09-18T01:26:06;99693.03;;;20.34;100.00
4392;BME280;2210;51.938;8.488;2023-09-18T01:30:10;99680.19;;;20.33;100.00
4392;BME280;2210;51.938;8.488;2023-09-18T01:34:11;99673.94;;;20.36;100.00
4392;BME280;2210;51.938;8.488;2023-09-18T01:38:14;99661.09;;;20.35;100.00
4392;BME280;2210;51.938;8.488;2023-09-18T01:42:18;99653.19;;;20.37;100.00
4392;BME280;2210;51.938;8.488;2023-09-18T01:46:20;99635.56;;;20.37;100.00
4392;BME280;2210;51.938;8.488;2023-09-18T01:50:21;99638.03;;;20.38;100.00
4392;BME280;2210;51.938;8.488;2023-09-18T01:54:22;99646.63;;;20.42;100.00
4392;BME280;2210;51.938;8.488;2023-09-18T01:58:23;99640.34;;;20.45;100.00
4392;BME280;2210;51.938;8.488;2023-09-18T02:02:24;99637.75;;;20.49;100.00
4392;BME280;2210;51.938;8.488;2023-09-18T02:06:24;99644.66;;;20.60;100.00
4392;BME280;2210;51.938;8.488;2023-09-18T02:10:27;99642.06;;;20.64;100.00
4392;BME280;2210;51.938;8.488;2023-09-18T02:14:30;99646.00;;;20.63;100.00
4392;BME280;2210;51.938;8.488;2023-09-18T02:18:37;99638.25;;;20.60;100.00
4392;BME280;2210;51.938;8.488;2023-09-18T02:22:41;99634.66;;;20.59;100.00
4392;BME280;2210;51.938;8.488;2023-09-18T02:26:41;99627.72;;;20.57;100.00
4392;BME280;2210;51.938;8.488;2023-09-18T02:30:42;99620.31;;;20.61;100.00
4392;BME280;2210;51.938;8.488;2023-09-18T02:34:45;99620.78;;;20.63;100.00
4392;BME280;2210;51.938;8.488;2023-09-18T02:38:51;99605.31;;;20.65;100.00
4392;BME280;2210;51.938;8.488;2023-09-18T02:42:52;99591.50;;;20.69;100.00
4392;BME280;2210;51.938;8.488;2023-09-18T02:46:58;99585.91;;;20.69;100.00
4392;BME280;2210;51.938;8.488;2023-09-18T02:51:02;99587.38;;;20.75;100.00
4392;BME280;2210;51.938;8.488;2023-09-18T02:55:08;99566.16;;;20.74;100.00
4392;BME280;2210;51.938;8.488;2023-09-18T02:59:18;99560.53;;;20.74;100.00
4392;BME280;2210;51.938;8.488;2023-09-18T03:03:18;99543.75;;;20.74;100.00
4392;BME280;2210;51.938;8.488;2023-09-18T03:07:22;99533.00;;;20.76;100.00
4392;BME280;2210;51.938;8.488;2023-09-18T03:11:22;99530.53;;;20.83;100.00
4392;BME280;2210;51.938;8.488;2023-09-18T03:15:27;99522.63;;;20.85;100.00
4392;BME280;2210;51.938;8.488;2023-09-18T03:19:27;99510.06;;;20.92;100.00
4392;BME280;2210;51.938;8.488;2023-09-18T03:23:28;99513.88;;;20.87;100.00
4392;BME280;2210;51.938;8.488;2023-09-18T03:27:30;99500.06;;;20.91;100.00
4392;BME280;2210;51.938;8.488;2023-09-18T03:31:44;99488.34;;;20.88;100.00
4392;BME280;2210;51.938;8.488;2023-09-18T03:35:48;99478.09;;;20.93;100.00
4392;BME280;2210;51.938;8.488;2023-09-18T03:39:49;99462.94;;;20.94;100.00
4392;BME280;2210;51.938;8.488;2023-09-18T03:43:50;99453.91;;;20.88;100.00
4392;BME280;2210;51.938;8.488;2023-09-18T03:47:55;99447.63;;;20.91;100.00
4392;BME280;2210;51.938;8.488;2023-09-18T03:51:56;99427.84;;;20.96;100.00
4392;BME280;2210;51.938;8.488;2023-09-18T03:55:57;99431.63;;;21.00;100.00
4392;BME280;2210;51.938;8.488;2023-09-18T03:59:58;99458.31;;;20.98;100.00
4392;BME280;2210;51.938;8.488;2023-09-18T04:04:04;99463.94;;;20.98;100.00
4392;BME280;2210;51.938;8.488;2023-09-18T04:08:05;99443.81;;;20.96;100.00
4392;BME280;2210;51.938;8.488;2023-09-18T04:12:08;99433.28;;;21.01;100.00
4392;BME280;2210;51.938;8.488;2023-09-18T04:16:10;99431.97;;;20.99;100.00
4392;BME280;2210;51.938;8.488;2023-09-18T04:20:14;99428.53;;;20.93;100.00
4392;BME280;2210;51.938;8.488;2023-09-18T04:24:15;99418.13;;;20.94;100.00
4392;BME280;2210;51.938;8.488;2023-09-18T04:28:17;99410.34;;;20.99;100.00
4392;BME280;2210;51.938;8.488;2023-09-18T04:32:18;99402.63;;;20.96;100.00
4392;BME280;2210;51.938;8.488;2023-09-18T04:36:22;99386.81;;;20.92;100.00
4392;BME280;2210;51.938;8.488;2023-09-18T04:40:22;99380.53;;;20.95;100.00
4392;BME280;2210;51.938;8.488;2023-09-18T04:44:30;99376.56;;;20.96;100.00
4392;BME280;2210;51.938;8.488;2023-09-18T04:48:37;99377.59;;;20.91;100.00
4392;BME280;2210;51.938;8.488;2023-09-18T04:52:37;99373.13;;;20.99;100.00
4392;BME280;2210;51.938;8.488;2023-09-18T04:56:41;99371.47;;;20.98;100.00
4392;BME280;2210;51.938;8.488;2023-09-18T05:00:41;99368.50;;;20.94;100.00
4392;BME280;2210;51.938;8.488;2023-09-18T05:04:42;99382.16;;;20.96;100.00
4392;BME280;2210;51.938;8.488;2023-09-18T05:08:44;99382.50;;;21.03;100.00
4392;BME280;2210;51.938;8.488;2023-09-18T05:12:44;99380.84;;;21.02;100.00
4392;BME280;2210;51.938;8.488;2023-09-18T05:16:47;99378.38;;;21.00;100.00
4392;BME280;2210;51.938;8.488;2023-09-18T05:20:48;99384.50;;;20.94;100.00
4392;BME280;2210;51.938;8.488;2023-09-18T05:25:09;99384.84;;;20.83;100.00
4392;BME280;2210;51.938;8.488;2023-09-18T05:29:15;99381.56;;;20.81;100.00
4392;BME280;2210;51.938;8.488;2023-09-18T05:33:15;99384.38;;;20.81;100.00
4392;BME280;2210;51.938;8.488;2023-09-18T05:37:16;99377.63;;;20.82;100.00
4392;BME280;2210;51.938;8.488;2023-09-18T05:41:16;99360.16;;;20.85;100.00
4392;BME280;2210;51.938;8.488;2023-09-18T05:45:16;99350.94;;;20.85;100.00
4392;BME280;2210;51.938;8.488;2023-09-18T05:49:17;99354.69;;;20.89;100.00
4392;BME280;2210;51.938;8.488;2023-09-18T05:53:17;99348.25;;;20.88;100.00
4392;BME280;2210;51.938;8.488;2023-09-18T05:57:24;99352.38;;;20.91;100.00
4392;BME280;2210;51.938;8.488;2023-09-18T06:01:24;99357.16;;;20.91;100.00
4392;BME280;2210;51.938;8.488;2023-09-18T06:05:25;99352.38;;;20.91;100.00
4392;BME280;2210;51.938;8.488;2023-09-18T06:09:25;99359.97;;;20.91;100.00
4392;BME280;2210;51.938;8.488;2023-09-18T06:13:27;99369.84;;;20.88;100.00
4392;BME280;2210;51.938;8.488;2023-09-18T06:17:27;99364.25;;;20.88;100.00
4392;BME280;2210;51.938;8.488;2023-09-18T06:21:31;99372.78;;;20.92;100.00
4392;BME280;2210;51.938;8.488;2023-09-18T06:25:34;99369.53;;;20.89;100.00
4392;BME280;2210;51.938;8.488;2023-09-18T06:29:41;99376.94;;;20.85;100.00
4392;BME280;2210;51.938;8.488;2023-09-18T06:33:43;99373.00;;;20.86;100.00
4392;BME280;2210;51.938;8.488;2023-09-18T06:37:43;99376.28;;;20.88;100.00
4392;BME280;2210;51.938;8.488;2023-09-18T06:41:43;99400.34;;;20.89;100.00
4392;BME280;2210;51.938;8.488;2023-09-18T06:45:46;99398.00;;;20.92;100.00
4392;BME280;2210;51.938;8.488;2023-09-18T06:49:47;99389.59;;;20.92;100.00
4392;BME280;2210;51.938;8.488;2023-09-18T06:53:47;99392.41;;;20.92;100.00
4392;BME280;2210;51.938;8.488;2023-09-18T06:57:47;99384.97;;;20.96;100.00
4392;BME280;2210;51.938;8.488;2023-09-18T07:01:48;99383.97;;;21.00;100.00
4392;BME280;2210;51.938;8.488;2023-09-18T07:05:58;99389.75;;;21.04;100.00
4392;BME280;2210;51.938;8.488;2023-09-18T07:09:58;99410.00;;;21.10;100.00
4392;BME280;2210;51.938;8.488;2023-09-18T07:13:59;99413.25;;;21.20;100.00
4392;BME280;2210;51.938;8.488;2023-09-18T07:18:01;99407.13;;;21.27;100.00
4392;BME280;2210;51.938;8.488;2023-09-18T07:22:01;99414.66;;;21.35;100.00
4392;BME280;2210;51.938;8.488;2023-09-18T07:26:05;99408.81;;;21.49;100.00
4392;BME280;2210;51.938;8.488;2023-09-18T07:30:06;99417.16;;;21.67;100.00
4392;BME280;2210;51.938;8.488;2023-09-18T07:34:07;99410.47;;;21.80;100.00
4392;BME280;2210;51.938;8.488;2023-09-18T07:38:08;99414.78;;;21.99;100.00
4392;BME280;2210;51.938;8.488;2023-09-18T07:42:12;99426.84;;;21.99;100.00
4392;BME280;2210;51.938;8.488;2023-09-18T07:46:12;99426.91;;;22.12;98.59
4392;BME280;2210;51.938;8.488;2023-09-18T07:50:13;99427.91;;;22.37;95.35
4392;BME280;2210;51.938;8.488;2023-09-18T07:54:14;99425.47;;;22.27;95.11
4392;BME280;2210;51.938;8.488;2023-09-18T07:58:19;99413.69;;;22.12;96.50
4392;BME280;2210;51.938;8.488;2023-09-18T08:02:29;99430.00;;;21.98;95.96
4392;BME280;2210;51.938;8.488;2023-09-18T08:15:43;99441.53;;;21.75;99.78
4392;BME280;2210;51.938;8.488;2023-09-18T08:19:43;99448.47;;;21.69;100.00
4392;BME280;2210;51.938;8.488;2023-09-18T08:23:44;99443.56;;;21.66;98.54
4392;BME280;2210;51.938;8.488;2023-09-18T08:27:45;99448.69;;;21.64;98.90
4392;BME280;2210;51.938;8.488;2023-09-18T08:31:46;99443.28;;;21.59;100.00
4392;BME280;2210;51.938;8.488;2023-09-18T08:35:49;99448.72;;;21.55;100.00
4392;BME280;2210;51.938;8.488;2023-09-18T08:40:12;99436.69;;;21.54;100.00
4392;BME280;2210;51.938;8.488;2023-09-18T08:44:32;99463.91;;;21.54;100.00
4392;BME280;2210;51.938;8.488;2023-09-18T08:49:06;99483.22;;;21.55;100.00
4392;BME280;2210;51.938;8.488;2023-09-18T08:53:07;99454.00;;;21.56;100.00
4392;BME280;2210;51.938;8.488;2023-09-18T08:57:14;99476.94;;;21.59;100.00
4392;BME280;2210;51.938;8.488;2023-09-18T09:01:20;99460.22;;;21.62;100.00
4392;BME280;2210;51.938;8.488;2023-09-18T09:05:44;99457.13;;;21.64;100.00
4392;BME280;2210;51.938;8.488;2023-09-18T09:09:44;99457.13;;;21.64;100.00
4392;BME280;2210;51.938;8.488;2023-09-18T09:14:13;99442.59;;;21.62;100.00
4392;BME280;2210;51.938;8.488;2023-09-18T09:18:29;99457.25;;;21.67;99.94
4392;BME280;2210;51.938;8.488;2023-09-18T09:22:34;99465.13;;;21.74;100.00
4392;BME280;2210;51.938;8.488;2023-09-18T09:26:39;99459.16;;;21.76;100.00
4392;BME280;2210;51.938;8.488;2023-09-18T09:30:43;99454.88;;;21.78;100.00
4392;BME280;2210;51.938;8.488;2023-09-18T09:34:49;99467.56;;;21.84;100.00
4392;BME280;2210;51.938;8.488;2023-09-18T09:38:55;99457.13;;;21.85;100.00
4392;BME280;2210;51.938;8.488;2023-09-18T09:43:01;99475.47;;;21.82;100.00
4392;BME280;2210;51.938;8.488;2023-09-18T09:47:11;99454.41;;;21.76;100.00
4392;BME280;2210;51.938;8.488;2023-09-18T09:51:17;99478.69;;;21.72;99.59
4392;BME280;2210;51.938;8.488;2023-09-18T09:55:40;99483.44;;;21.71;100.00
4392;BME280;2210;51.938;8.488;2023-09-18T09:59:44;99471.59;;;21.66;100.00
4392;BME280;2210;51.938;8.488;2023-09-18T10:03:47;99475.09;;;21.63;100.00
4392;BME280;2210;51.938;8.488;2023-09-18T10:08:08;99482.66;;;21.62;100.00
4392;BME280;2210;51.938;8.488;2023-09-18T10:12:12;99479.84;;;21.71;100.00
4392;BME280;2210;51.938;8.488;2023-09-18T10:16:19;99474.81;;;21.85;100.00
4392;BME280;2210;51.938;8.488;2023-09-18T10:20:25;99468.59;;;22.01;99.51
4392;BME280;2210;51.938;8.488;2023-09-18T10:24:46;99480.72;;;22.14;100.00
4392;BME280;2210;51.938;8.488;2023-09-18T10:28:47;99478.94;;;22.09;98.53
4392;BME280;2210;51.938;8.488;2023-09-18T10:32:51;99484.28;;;22.02;100.00
4392;BME280;2210;51.938;8.488;2023-09-18T10:36:54;99491.81;;;22.10;97.97
4392;BME280;2210;51.938;8.488;2023-09-18T10:40:55;99510.97;;;22.08;96.17
4392;BME280;2210;51.938;8.488;2023-09-18T10:45:04;99515.94;;;22.11;96.78
4392;BME280;2210;51.938;8.488;2023-09-18T10:49:05;99506.84;;;22.05;96.89
4392;BME280;2210;51.938;8.488;2023-09-18T10:53:05;99515.94;;;22.11;96.00
4392;BME280;2210;51.938;8.488;2023-09-18T10:57:12;99491.13;;;22.13;95.82
4392;BME280;2210;51.938;8.488;2023-09-18T11:01:17;99489.28;;;22.17;97.46
4392;BME280;2210;51.938;8.488;2023-09-18T11:05:29;99496.59;;;22.10;95.42
4392;BME280;2210;51.938;8.488;2023-09-18T11:09:44;99504.88;;;22.06;93.86
4392;BME280;2210;51.938;8.488;2023-09-18T11:14:05;99509.03;;;22.00;94.61
4392;BME280;2210;51.938;8.488;2023-09-18T11:18:19;99513.97;;;22.03;94.88
4392;BME280;2210;51.938;8.488;2023-09-18T11:22:19;99515.28;;;22.05;96.84
4392;BME280;2210;51.938;8.488;2023-09-18T11:26:37;99512.63;;;22.09;96.97
4392;BME280;2210;51.938;8.488;2023-09-18T11:30:53;99510.78;;;22.13;97.48
4392;BME280;2210;51.938;8.488;2023-09-18T11:35:11;99498.84;;;22.16;99.38
4392;BME280;2210;51.938;8.488;2023-09-18T11:39:12;99494.81;;;22.35;95.40
4392;BME280;2210;51.938;8.488;2023-09-18T11:43:19;99489.31;;;22.60;93.30
4392;BME280;2210;51.938;8.488;2023-09-18T11:47:24;99487.09;;;22.99;90.66
4392;BME280;2210;51.938;8.488;2023-09-18T11:51:32;99483.91;;;23.21;88.12
4392;BME280;2210;51.938;8.488;2023-09-18T11:55:33;99488.25;;;23.19;88.70
4392;BME280;2210;51.938;8.488;2023-09-18T11:59:42;99487.25;;;23.36;85.39
4392;BME280;2210;51.938;8.488;2023-09-18T12:03:52;99496.81;;;23.22;85.38
4392;BME280;2210;51.938;8.488;2023-09-18T12:07:59;99493.44;;;22.96;86.48
4392;BME280;2210;51.938;8.488;2023-09-18T12:12:12;99483.56;;;22.89;85.12
4392;BME280;2210;51.938;8.488;2023-09-18T12:16:15;99485.31;;;22.82;87.41
4392;BME280;2210;51.938;8.488;2023-09-18T12:20:21;99484.91;;;22.71;88.28
4392;BME280;2210;51.938;8.488;2023-09-18T12:24:25;99474.97;;;22.73;87.45
4392;BME280;2210;51.938;8.488;2023-09-18T12:28:26;99478.59;;;22.74;83.92
4392;BME280;2210;51.938;8.488;2023-09-18T12:32:38;99491.25;;;22.80;84.76
4392;BME280;2210;51.938;8.488;2023-09-18T12:36:45;99487.78;;;22.83;88.13
4392;BME280;2210;51.938;8.488;2023-09-18T12:40:47;99483.66;;;22.81;85.45
4392;BME280;2210;51.938;8.488;2023-09-18T12:44:51;99473.22;;;22.81;87.12
4392;BME280;2210;51.938;8.488;2023-09-18T12:48:51;99473.50;;;22.88;85.49
4392;BME280;2210;51.938;8.488;2023-09-18T12:53:21;99467.56;;;23.02;82.98
4392;BME280;2210;51.938;8.488;2023-09-18T12:57:28;99468.69;;;23.22;79.33
4392;BME280;2210;51.938;8.488;2023-09-18T13:01:28;99460.28;;;23.35;81.70
4392;BME280;2210;51.938;8.488;2023-09-18T13:05:44;99453.50;;;23.48;82.54
4392;BME280;2210;51.938;8.488;2023-09-18T13:10:10;99442.47;;;23.55;79.76
4392;BME280;2210;51.938;8.488;2023-09-18T13:14:11;99448.09;;;23.43;81.66
4392;BME280;2210;51.938;8.488;2023-09-18T13:18:11;99449.47;;;23.37;85.57
4392;BME280;2210;51.938;8.488;2023-09-18T13:22:22;99436.63;;;23.48;79.36
4392;BME280;2210;51.938;8.488;2023-09-18T13:26:22;99440.81;;;23.54;81.40
4392;BME280;2210;51.938;8.488;2023-09-18T13:30:32;99436.84;;;23.43;80.46
4392;BME280;2210;51.938;8.488;2023-09-18T13:34:35;99442.81;;;23.54;77.76
4392;BME280;2210;51.938;8.488;2023-09-18T13:38:35;99437.53;;;23.52;78.30
4392;BME280;2210;51.938;8.488;2023-09-18T13:42:37;99428.97;;;23.61;76.27
4392;BME280;2210;51.938;8.488;2023-09-18T13:46:46;99437.53;;;23.77;76.90
4392;BME280;2210;51.938;8.488;2023-09-18T13:50:53;99429.09;;;23.89;76.56
4392;BME280;2210;51.938;8.488;2023-09-18T13:54:56;99421.78;;;24.01;74.58
4392;BME280;2210;51.938;8.488;2023-09-18T13:58:56;99415.13;;;23.93;72.17
4392;BME280;2210;51.938;8.488;2023-09-18T14:07:12;99415.13;;;23.56;74.69
4392;BME280;2210;51.938;8.488;2023-09-18T14:11:13;99417.72;;;23.36;75.85
4392;BME280;2210;51.938;8.488;2023-09-18T14:15:13;99416.66;;;23.29;75.58
4392;BME280;2210;51.938;8.488;2023-09-18T14:19:14;99409.97;;;23.21;76.76
4392;BME280;2210;51.938;8.488;2023-09-18T14:23:14;99416.03;;;23.11;76.96
4392;BME280;2210;51.938;8.488;2023-09-18T14:27:17;99403.72;;;23.03;80.60
4392;BME280;2210;51.938;8.488;2023-09-18T14:31:17;99425.25;;;22.86;83.13
4392;BME280;2210;51.938;8.488;2023-09-18T14:35:18;99435.72;;;22.65;93.31
4392;BME280;2210;51.938;8.488;2023-09-18T14:39:18;99430.97;;;22.44;99.57
4392;BME280;2210;51.938;8.488;2023-09-18T14:43:18;99439.28;;;21.89;100.00
4392;BME280;2210;51.938;8.488;2023-09-18T14:47:22;99413.13;;;21.08;100.00
4392;BME280;2210;51.938;8.488;2023-09-18T14:51:37;99397.41;;;20.77;100.00
4392;BME280;2210;51.938;8.488;2023-09-18T14:55:44;99392.28;;;20.79;100.00
4392;BME280;2210;51.938;8.488;2023-09-18T14:59:44;99387.94;;;20.99;100.00
4392;BME280;2210;51.938;8.488;2023-09-18T15:03:47;99406.34;;;21.09;100.00
4392;BME280;2210;51.938;8.488;2023-09-18T15:07:49;99408.16;;;21.14;100.00
4392;BME280;2210;51.938;8.488;2023-09-18T15:11:49;99396.13;;;21.13;100.00
4392;BME280;2210;51.938;8.488;2023-09-18T15:15:49;99401.63;;;21.31;100.00
4392;BME280;2210;51.938;8.488;2023-09-18T15:19:50;99401.13;;;21.37;100.00
4392;BME280;2210;51.938;8.488;2023-09-18T15:23:55;99390.88;;;21.42;100.00
4392;BME280;2210;51.938;8.488;2023-09-18T15:27:59;99378.50;;;21.43;100.00
4392;BME280;2210;51.938;8.488;2023-09-18T15:32:02;99371.72;;;21.44;100.00
4392;BME280;2210;51.938;8.488;2023-09-18T15:36:03;99370.59;;;21.45;100.00
4392;BME280;2210;51.938;8.488;2023-09-18T15:40:04;99377.69;;;21.42;100.00
4392;BME280;2210;51.938;8.488;2023-09-18T15:44:05;99371.13;;;21.38;100.00
4392;BME280;2210;51.938;8.488;2023-09-18T15:48:07;99374.38;;;21.40;100.00
4392;BME280;2210;51.938;8.488;2023-09-18T15:52:07;99364.38;;;21.30;100.00
4392;BME280;2210;51.938;8.488;2023-09-18T15:56:08;99366.16;;;21.35;100.00
4392;BME280;2210;51.938;8.488;2023-09-18T16:00:15;99363.00;;;21.36;100.00
4392;BME280;2210;51.938;8.488;2023-09-18T16:04:20;99353.97;;;21.31;100.00
4392;BME280;2210;51.938;8.488;2023-09-18T16:08:24;99359.56;;;21.39;100.00
4392;BME280;2210;51.938;8.488;2023-09-18T16:12:24;99363.84;;;21.37;100.00
4392;BME280;2210;51.938;8.488;2023-09-18T16:16:25;99364.97;;;21.45;100.00
4392;BME280;2210;51.938;8.488;2023-09-18T16:20:25;99365.63;;;21.42;100.00
4392;BME280;2210;51.938;8.488;2023-09-18T16:24:28;99364.53;;;21.34;100.00
4392;BME280;2210;51.938;8.488;2023-09-18T16:28:36;99365.44;;;21.17;100.00
4392;BME280;2210;51.938;8.488;2023-09-18T16:32:42;99360.19;;;21.15;100.00
4392;BME280;2210;51.938;8.488;2023-09-18T16:36:49;99357.38;;;21.15;100.00
4392;BME280;2210;51.938;8.488;2023-09-18T16:40:49;99347.81;;;21.16;100.00
4392;BME280;2210;51.938;8.488;2023-09-18T16:44:53;99355.72;;;21.14;100.00
4392;BME280;2210;51.938;8.488;2023-09-18T16:48:54;99359.41;;;21.06;100.00
4392;BME280;2210;51.938;8.488;2023-09-18T16:52:55;99365.81;;;21.06;100.00
4392;BME280;2210;51.938;8.488;2023-09-18T16:56:55;99369.16;;;21.00;100.00
4392;BME280;2210;51.938;8.488;2023-09-18T17:00:56;99373.59;;;21.01;100.00
4392;BME280;2210;51.938;8.488;2023-09-18T17:04:56;99372.47;;;20.93;100.00
4392;BME280;2210;51.938;8.488;2023-09-18T17:09:03;99370.00;;;20.92;100.00
4392;BME280;2210;51.938;8.488;2023-09-18T17:13:04;99365.06;;;20.88;100.00
4392;BME280;2210;51.938;8.488;2023-09-18T17:17:07;99363.41;;;20.87;100.00
4392;BME280;2210;51.938;8.488;2023-09-18T17:21:13;99364.78;;;20.81;100.00
4392;BME280;2210;51.938;8.488;2023-09-18T17:25:15;99362.81;;;20.73;100.00
4392;BME280;2210;51.938;8.488;2023-09-18T17:29:16;99366.44;;;20.65;100.00
4392;BME280;2210;51.938;8.488;2023-09-18T17:33:17;99357.69;;;20.66;100.00
4392;BME280;2210;51.938;8.488;2023-09-18T17:37:23;99364.13;;;20.67;100.00
4392;BME280;2210;51.938;8.488;2023-09-18T17:41:28;99363.66;;;20.65;100.00
4392;BME280;2210;51.938;8.488;2023-09-18T17:45:32;99364.13;;;20.67;100.00
4392;BME280;2210;51.938;8.488;2023-09-18T17:49:35;99364.13;;;20.67;100.00
4392;BME280;2210;51.938;8.488;2023-09-18T17:53:35;99367.25;;;20.65;100.00
4392;BME280;2210;51.938;8.488;2023-09-18T17:57:36;99349.47;;;20.61;100.00
4392;BME280;2210;51.938;8.488;2023-09-18T18:01:38;99365.13;;;20.62;100.00
4392;BME280;2210;51.938;8.488;2023-09-18T18:05:42;99371.41;;;20.59;100.00
4392;BME280;2210;51.938;8.488;2023-09-18T18:09:48;99359.53;;;20.53;100.00
4392;BME280;2210;51.938;8.488;2023-09-18T18:13:54;99370.91;;;20.57;100.00
4392;BME280;2210;51.938;8.488;2023-09-18T18:17:54;99369.41;;;20.60;100.00
4392;BME280;2210;51.938;8.488;2023-09-18T18:21:54;99372.53;;;20.67;99.87
4392;BME280;2210;51.938;8.488;2023-09-18T18:26:08;99370.09;;;20.74;97.91
4392;BME280;2210;51.938;8.488;2023-09-18T18:30:09;99378.31;;;20.70;98.07
4392;BME280;2210;51.938;8.488;2023-09-18T18:34:13;99373.38;;;20.67;98.73
4392;BME280;2210;51.938;8.488;2023-09-18T18:38:13;99374.69;;;20.70;97.60
4392;BME280;2210;51.938;8.488;2023-09-18T18:42:13;99384.72;;;20.71;97.55
4392;BME280;2210;51.938;8.488;2023-09-18T18:46:14;99375.00;;;20.77;96.04
4392;BME280;2210;51.938;8.488;2023-09-18T18:50:23;99381.91;;;20.80;95.60
4392;BME280;2210;51.938;8.488;2023-09-18T18:54:24;99380.59;;;20.77;94.77
4392;BME280;2210;51.938;8.488;2023-09-18T18:58:25;99376.97;;;20.77;94.81
4392;BME280;2210;51.938;8.488;2023-09-18T19:08:01;99374.50;;;20.75;94.10
4392;BME280;2210;51.938;8.488;2023-09-18T19:12:25;99370.09;;;20.74;93.56
4392;BME280;2210;51.938;8.488;2023-09-18T19:16:30;99373.06;;;20.69;93.58
4392;BME280;2210;51.938;8.488;2023-09-18T19:20:34;99409.94;;;20.71;93.52
4392;BME280;2210;51.938;8.488;2023-09-18T19:24:44;99472.69;;;20.44;90.42
4392;BME280;2210;51.938;8.488;2023-09-18T19:28:47;99473.03;;;19.49;97.74
4392;BME280;2210;51.938;8.488;2023-09-18T19:32:47;99489.50;;;18.74;100.00
4392;BME280;2210;51.938;8.488;2023-09-18T19:36:48;99504.03;;;18.85;100.00
4392;BME280;2210;51.938;8.488;2023-09-18T19:40:54;99501.56;;;18.83;100.00
4392;BME280;2210;51.938;8.488;2023-09-18T19:44:54;99534.94;;;18.66;100.00
4392;BME280;2210;51.938;8.488;2023-09-18T19:48:59;99555.28;;;18.44;100.00
4392;BME280;2210;51.938;8.488;2023-09-18T19:53:02;99548.81;;;18.07;100.00
4392;BME280;2210;51.938;8.488;2023-09-18T19:57:02;99541.63;;;18.06;100.00
4392;BME280;2210;51.938;8.488;2023-09-18T20:01:06;99547.00;;;18.02;100.00
4392;BME280;2210;51.938;8.488;2023-09-18T20:05:08;99528.69;;;18.10;100.00
4392;BME280;2210;51.938;8.488;2023-09-18T20:09:12;99529.44;;;18.01;100.00
4392;BME280;2210;51.938;8.488;2023-09-18T20:13:22;99521.25;;;18.05;100.00
4392;BME280;2210;51.938;8.488;2023-09-18T20:17:44;99523.13;;;17.82;100.00
4392;BME280;2210;51.938;8.488;2023-09-18T20:21:44;99525.91;;;17.82;100.00
4392;BME280;2210;51.938;8.488;2023-09-18T20:25:46;99530.94;;;17.66;100.00
4392;BME280;2210;51.938;8.488;2023-09-18T20:29:59;99531.81;;;17.66;100.00
4392;BME280;2210;51.938;8.488;2023-09-18T20:34:00;99538.81;;;17.64;100.00
4392;BME280;2210;51.938;8.488;2023-09-18T20:38:00;99532.00;;;17.56;100.00
4392;BME280;2210;51.938;8.488;2023-09-18T20:42:07;99533.66;;;17.43;100.00
4392;BME280;2210;51.938;8.488;2023-09-18T20:46:08;99543.84;;;17.34;100.00
4392;BME280;2210;51.938;8.488;2023-09-18T20:50:08;99533.09;;;17.27;100.00
4392;BME280;2210;51.938;8.488;2023-09-18T20:54:14;99519.16;;;17.27;100.00
4392;BME280;2210;51.938;8.488;2023-09-18T20:58:15;99528.84;;;17.16;100.00
4392;BME280;2210;51.938;8.488;2023-09-18T21:02:15;99526.25;;;17.06;100.00
4392;BME280;2210;51.938;8.488;2023-09-18T21:06:22;99522.91;;;17.03;100.00
4392;BME280;2210;51.938;8.488;2023-09-18T21:10:22;99521.50;;;17.06;100.00
4392;BME280;2210;51.938;8.488;2023-09-18T21:14:34;99521.56;;;17.01;100.00
4392;BME280;2210;51.938;8.488;2023-09-18T21:18:38;99512.41;;;17.00;100.00
4392;BME280;2210;51.938;8.488;2023-09-18T21:22:42;99510.66;;;17.05;100.00
4392;BME280;2210;51.938;8.488;2023-09-18T21:26:42;99506.44;;;17.07;100.00
4392;BME280;2210;51.938;8.488;2023-09-18T21:30:42;99504.28;;;17.04;100.00
4392;BME280;2210;51.938;8.488;2023-09-18T21:34:46;99518.19;;;17.04;100.00
4392;BME280;2210;51.938;8.488;2023-09-18T21:38:47;99512.19;;;16.97;100.00
4392;BME280;2210;51.938;8.488;2023-09-18T21:42:49;99527.75;;;16.98;100.00
4392;BME280;2210;51.938;8.488;2023-09-18T21:46:49;99524.47;;;16.96;100.00
4392;BME280;2210;51.938;8.488;2023-09-18T21:50:49;99536.97;;;16.79;100.00
4392;BME280;2210;51.938;8.488;2023-09-18T21:54:52;99526.88;;;17.02;100.00
4392;BME280;2210;51.938;8.488;2023-09-18T21:58:56;99535.13;;;16.89;100.00
4392;BME280;2210;51.938;8.488;2023-09-18T22:02:56;99537.09;;;16.88;100.00
4392;BME280;2210;51.938;8.488;2023-09-18T22:06:56;99533.41;;;16.93;100.00
4392;BME280;2210;51.938;8.488;2023-09-18T22:10:57;99545.50;;;17.02;100.00
4392;BME280;2210;51.938;8.488;2023-09-18T22:14:57;99547.97;;;17.03;100.00